createdAt,value
2018-04-30T00:02:09.456Z,54.70
2018-04-30T00:04:37.108Z,54.50
2018-04-30T00:07:04.754Z,54.50
2018-04-30T00:09:32.421Z,54.30
2018-04-30T00:12:00.101Z,54.40
2018-04-30T00:14:28.495Z,54.20
2018-04-30T00:16:56.918Z,54.10
2018-04-30T00:19:24.553Z,54.10
2018-04-30T00:21:52.205Z,54.00
2018-04-30T00:24:19.898Z,53.90
2018-04-30T00:26:47.538Z,53.70
2018-04-30T00:29:15.938Z,54.20
2018-04-30T00:31:43.568Z,53.50
2018-04-30T00:34:11.286Z,53.50
2018-04-30T00:36:38.942Z,53.40
2018-04-30T00:39:06.582Z,53.30
2018-04-30T00:41:34.659Z,53.20
2018-04-30T00:44:02.303Z,53.20
2018-04-30T00:46:32.357Z,53.40
2018-04-30T00:49:02.294Z,54.20
2018-04-30T00:51:30.692Z,53.60
2018-04-30T00:53:59.157Z,53.60
2018-04-30T00:56:26.778Z,53.60
2018-04-30T00:58:55.190Z,53.90
2018-04-30T01:01:23.614Z,54.10
2018-04-30T01:03:51.310Z,54.10
2018-04-30T01:06:18.964Z,54.20
2018-04-30T01:08:47.390Z,54.70
2018-04-30T01:11:15.054Z,54.60
2018-04-30T01:13:46.649Z,55.00
2018-04-30T01:16:15.111Z,55.20
2018-04-30T01:18:42.726Z,55.10
2018-04-30T01:21:11.794Z,55.10
2018-04-30T01:23:39.427Z,55.00
2018-04-30T01:26:07.069Z,54.90
2018-04-30T01:28:34.679Z,54.90
2018-04-30T01:31:02.465Z,55.00
2018-04-30T01:33:30.086Z,55.70
2018-04-30T01:35:57.751Z,55.30
2018-04-30T01:38:25.387Z,55.20
2018-04-30T01:40:54.088Z,54.70
2018-04-30T01:43:21.778Z,54.70
2018-04-30T01:45:49.398Z,54.60
2018-04-30T01:48:17.087Z,53.90
2018-04-30T01:50:44.740Z,54.00
2018-04-30T01:53:12.427Z,53.80
2018-04-30T01:55:40.053Z,53.90
2018-04-30T01:58:07.688Z,53.50
2018-04-30T02:00:35.358Z,53.50
2018-04-30T02:03:03.088Z,53.60
2018-04-30T02:05:31.519Z,54.50
2018-04-30T02:07:59.176Z,54.50
2018-04-30T02:10:27.602Z,56.20
2018-04-30T02:12:55.213Z,56.20
2018-04-30T02:15:22.859Z,57.10
2018-04-30T02:17:51.244Z,59.20
2018-04-30T02:20:18.985Z,59.20
2018-04-30T02:31:38.944Z,63.70
2018-04-30T02:34:06.603Z,64.60
2018-04-30T02:36:34.757Z,65.20
2018-04-30T02:39:02.433Z,65.70
2018-04-30T02:41:30.089Z,66.00
2018-04-30T02:43:57.762Z,66.20
2018-04-30T02:46:26.148Z,65.90
2018-04-30T02:48:53.798Z,65.90
2018-04-30T02:51:21.445Z,65.40
2018-04-30T02:53:49.895Z,63.70
2018-04-30T02:56:17.571Z,63.60
2018-04-30T02:58:45.226Z,62.60
2018-04-30T03:01:13.678Z,61.10
2018-04-30T03:03:41.309Z,61.10
2018-04-30T03:06:08.967Z,61.10
2018-04-30T03:08:36.603Z,61.10
2018-04-30T03:11:04.289Z,61.10
2018-04-30T03:13:31.921Z,61.00
2018-04-30T03:15:59.683Z,61.00
2018-04-30T03:18:27.309Z,60.90
2018-04-30T03:20:54.942Z,60.60
2018-04-30T03:23:22.609Z,59.90
2018-04-30T03:25:51.014Z,58.50
2018-04-30T03:28:18.649Z,58.50
2018-04-30T03:30:46.582Z,57.70
2018-04-30T03:33:15.409Z,57.00
2018-04-30T03:35:43.058Z,57.00
2018-04-30T03:38:10.710Z,57.00
2018-04-30T03:40:38.354Z,56.70
2018-04-30T03:43:06.133Z,56.40
2018-04-30T03:45:33.695Z,56.20
2018-04-30T03:48:01.369Z,55.90
2018-04-30T03:50:50.407Z,55.80
2018-04-30T03:53:18.102Z,55.60
2018-04-30T03:55:45.757Z,55.50
2018-04-30T03:58:14.200Z,55.40
2018-04-30T04:00:53.757Z,55.40
2018-04-30T04:03:33.466Z,55.60
2018-04-30T04:06:13.109Z,55.60
2018-04-30T04:08:40.829Z,55.60
2018-04-30T04:11:08.498Z,55.70
2018-04-30T04:13:36.119Z,55.60
2018-04-30T04:16:03.813Z,55.60
2018-04-30T04:18:31.405Z,55.60
2018-04-30T04:20:59.805Z,56.60
2018-04-30T04:23:27.410Z,55.90
2018-04-30T04:25:55.854Z,56.20
2018-04-30T04:28:24.269Z,56.30
2018-04-30T04:30:51.866Z,56.30
2018-04-30T04:33:19.517Z,56.40
2018-04-30T04:35:47.129Z,56.70
2018-04-30T04:38:14.782Z,56.70
2018-04-30T04:40:42.406Z,56.90
2018-04-30T04:43:10.070Z,56.90
2018-04-30T04:45:37.718Z,57.00
2018-04-30T04:48:06.193Z,57.10
2018-04-30T04:50:33.850Z,57.10
2018-04-30T04:53:01.483Z,57.10
2018-04-30T04:55:29.914Z,57.40
2018-04-30T04:57:57.559Z,56.90
2018-04-30T05:00:25.238Z,56.90
2018-04-30T05:02:52.844Z,56.90
2018-04-30T05:05:20.514Z,56.80
2018-04-30T05:07:48.146Z,56.70
2018-04-30T05:10:15.818Z,56.60
2018-04-30T05:12:43.506Z,56.40
2018-04-30T05:15:11.306Z,56.20
2018-04-30T05:17:39.013Z,55.60
2018-04-30T05:20:06.672Z,55.00
2018-04-30T05:22:35.681Z,54.50
2018-04-30T05:25:03.433Z,53.90
2018-04-30T05:27:31.767Z,53.60
2018-04-30T05:30:00.313Z,53.50
2018-04-30T05:32:27.981Z,52.80
2018-04-30T05:34:56.419Z,52.80
2018-04-30T05:37:24.056Z,52.60
2018-04-30T05:39:51.769Z,52.60
2018-04-30T05:42:19.393Z,52.50
2018-04-30T05:44:47.081Z,52.40
2018-04-30T05:47:14.777Z,52.40
2018-04-30T05:49:42.470Z,52.50
2018-04-30T05:52:10.885Z,53.00
2018-04-30T05:54:38.764Z,53.00
2018-04-30T05:57:07.153Z,54.00
2018-04-30T05:59:34.814Z,53.90
2018-04-30T06:02:02.469Z,54.40
2018-04-30T06:04:30.109Z,55.00
2018-04-30T06:06:57.793Z,55.40
2018-04-30T06:09:25.438Z,55.70
2018-04-30T06:11:53.849Z,56.20
2018-04-30T06:14:22.305Z,56.20
2018-04-30T06:16:50.785Z,56.20
2018-04-30T06:19:18.413Z,56.30
2018-04-30T06:21:46.071Z,56.20
2018-04-30T06:24:13.733Z,56.00
2018-04-30T06:26:41.488Z,56.00
2018-04-30T06:29:09.065Z,55.80
2018-04-30T06:31:36.809Z,55.70
2018-04-30T06:34:05.308Z,55.20
2018-04-30T06:36:33.717Z,55.20
2018-04-30T06:39:02.171Z,55.00
2018-04-30T06:41:29.805Z,55.00
2018-04-30T06:43:58.232Z,55.20
2018-04-30T06:46:25.942Z,55.20
2018-04-30T06:48:53.577Z,55.50
2018-04-30T06:51:21.261Z,56.10
2018-04-30T06:53:48.905Z,56.80
2018-04-30T06:56:16.580Z,57.50
2018-04-30T06:58:44.274Z,58.30
2018-04-30T07:01:11.949Z,58.60
2018-04-30T07:03:39.582Z,59.60
2018-04-30T07:06:07.288Z,60.40
2018-04-30T07:08:35.678Z,62.50
2018-04-30T07:11:03.387Z,61.80
2018-04-30T07:13:31.021Z,62.50
2018-04-30T07:15:58.682Z,63.20
2018-04-30T07:18:26.348Z,63.90
2018-04-30T07:20:54.756Z,65.20
2018-04-30T07:23:23.187Z,66.10
2018-04-30T07:25:50.850Z,66.10
2018-04-30T07:28:19.305Z,67.20
2018-04-30T07:30:46.942Z,67.30
2018-04-30T07:33:15.474Z,68.70
2018-04-30T07:35:43.066Z,68.70
2018-04-30T07:38:10.699Z,69.30
2018-04-30T07:40:38.326Z,70.00
2018-04-30T07:43:05.922Z,70.40
2018-04-30T07:45:33.574Z,71.00
2018-04-30T07:48:01.961Z,71.70
2018-04-30T07:50:29.598Z,71.60
2018-04-30T07:52:57.249Z,72.20
2018-04-30T07:55:24.925Z,73.00
2018-04-30T07:57:52.546Z,73.50
2018-04-30T08:00:20.210Z,73.90
2018-04-30T08:02:48.646Z,74.40
2018-04-30T08:05:16.298Z,75.10
2018-04-30T08:07:43.970Z,74.20
2018-04-30T08:10:11.606Z,74.10
2018-04-30T08:12:39.289Z,74.30
2018-04-30T08:15:06.929Z,74.40
2018-04-30T08:17:34.581Z,74.30
2018-04-30T08:20:02.203Z,74.30
2018-04-30T08:22:29.851Z,74.40
2018-04-30T08:24:57.484Z,74.50
2018-04-30T08:27:25.140Z,74.50
2018-04-30T08:29:52.795Z,74.50
2018-04-30T08:32:20.484Z,74.60
2018-04-30T08:34:48.133Z,74.40
2018-04-30T08:37:15.851Z,74.10
2018-04-30T08:39:43.525Z,73.80
2018-04-30T08:42:11.956Z,73.30
2018-04-30T08:44:39.630Z,73.30
2018-04-30T08:47:07.254Z,73.10
2018-04-30T08:49:34.924Z,72.70
2018-04-30T08:52:02.639Z,72.10
2018-04-30T08:54:30.301Z,71.60
2018-04-30T08:56:57.989Z,71.00
2018-04-30T08:59:25.653Z,70.50
2018-04-30T09:01:53.285Z,69.50
2018-04-30T09:04:21.654Z,68.10
2018-04-30T09:06:49.304Z,68.10
2018-04-30T09:09:17.717Z,67.20
2018-04-30T09:11:46.142Z,66.80
2018-04-30T09:14:13.847Z,66.70
2018-04-30T09:16:41.578Z,65.80
2018-04-30T09:19:09.241Z,65.00
2018-04-30T09:21:36.854Z,64.00
2018-04-30T09:24:04.574Z,63.10
2018-04-30T09:26:32.941Z,60.40
2018-04-30T09:29:00.582Z,60.40
2018-04-30T09:31:43.489Z,59.90
2018-04-30T09:34:11.377Z,59.80
2018-04-30T09:36:39.814Z,59.10
2018-04-30T09:39:07.414Z,58.90
2018-04-30T09:41:35.167Z,58.20
2018-04-30T09:44:02.917Z,57.80
2018-04-30T09:46:30.696Z,57.10
2018-04-30T09:48:59.260Z,56.20
2018-04-30T09:51:45.941Z,56.20
2018-04-30T09:54:13.941Z,56.10
2018-04-30T09:56:42.555Z,56.10
2018-04-30T09:59:10.434Z,55.40
2018-04-30T10:04:53.239Z,53.90
2018-04-30T10:10:19.296Z,53.10
2018-04-30T10:12:58.749Z,53.10
2018-04-30T10:15:26.417Z,52.10
2018-04-30T10:17:54.192Z,51.30
2018-04-30T10:20:21.784Z,50.70
2018-04-30T10:22:49.417Z,50.10
2018-04-30T10:25:17.877Z,49.40
2018-04-30T10:27:45.687Z,49.40
2018-04-30T10:30:13.336Z,49.60
2018-04-30T10:32:40.986Z,49.80
2018-04-30T10:35:08.622Z,49.80
2018-04-30T10:37:36.334Z,49.70
2018-04-30T10:40:04.829Z,49.10
2018-04-30T10:42:32.501Z,49.10
2018-04-30T10:45:00.159Z,48.90
2018-04-30T10:47:28.564Z,48.50
2018-04-30T10:49:56.979Z,48.60
2018-04-30T10:52:25.413Z,48.50
2018-04-30T10:54:53.093Z,48.50
2018-04-30T10:57:20.729Z,48.80
2018-04-30T10:59:48.406Z,48.80
2018-04-30T11:02:16.056Z,48.20
2018-04-30T11:04:43.713Z,47.80
2018-04-30T11:07:12.152Z,46.10
2018-04-30T11:09:39.830Z,46.10
2018-04-30T11:12:07.515Z,45.70
2018-04-30T11:14:35.856Z,45.10
2018-04-30T11:17:03.476Z,45.10
2018-04-30T11:19:31.052Z,44.70
2018-04-30T11:21:58.672Z,44.20
2018-04-30T11:24:27.010Z,43.90
2018-04-30T11:26:54.613Z,43.80
2018-04-30T11:29:22.209Z,44.10
2018-04-30T11:31:49.780Z,43.70
2018-04-30T11:34:17.377Z,43.00
2018-04-30T11:36:44.964Z,42.10
2018-04-30T11:39:12.859Z,40.60
2018-04-30T11:41:40.446Z,40.20
2018-04-30T11:44:08.061Z,40.40
2018-04-30T11:46:36.436Z,40.70
2018-04-30T11:49:04.064Z,40.60
2018-04-30T11:51:32.584Z,39.90
2018-04-30T11:54:00.316Z,39.90
2018-04-30T11:56:29.064Z,39.70
2018-04-30T11:58:58.611Z,39.30
2018-04-30T12:01:26.241Z,39.20
2018-04-30T12:03:53.851Z,38.60
2018-04-30T12:06:21.719Z,38.20
2018-04-30T12:08:49.357Z,37.40
2018-04-30T12:11:16.973Z,36.60
2018-04-30T12:13:44.870Z,35.70
2018-04-30T12:16:12.982Z,34.90
2018-04-30T12:18:40.924Z,34.50
2018-04-30T12:21:08.660Z,34.20
2018-04-30T12:23:36.311Z,34.30
2018-04-30T12:26:03.992Z,34.20
2018-04-30T12:28:31.678Z,34.30
2018-04-30T12:30:59.381Z,34.50
2018-04-30T12:33:27.070Z,34.50
2018-04-30T12:35:54.790Z,34.60
2018-04-30T12:38:23.215Z,34.60
2018-04-30T12:40:51.654Z,34.40
2018-04-30T12:43:19.658Z,33.80
2018-04-30T12:45:47.350Z,33.40
2018-04-30T12:48:15.009Z,32.60
2018-04-30T12:50:42.664Z,32.60
2018-04-30T12:53:10.326Z,32.70
2018-04-30T12:58:53.159Z,32.00
2018-04-30T13:01:20.829Z,31.40
2018-04-30T13:03:49.270Z,30.50
2018-04-30T13:06:16.930Z,30.50
2018-04-30T13:08:44.609Z,29.80
2018-04-30T13:11:12.266Z,29.80
2018-04-30T13:13:39.946Z,29.60
2018-04-30T13:16:07.893Z,29.50
2018-04-30T13:18:36.389Z,29.70
2018-04-30T13:21:04.068Z,29.70
2018-04-30T13:23:31.722Z,29.80
2018-04-30T13:26:00.149Z,29.80
2018-04-30T13:28:28.626Z,29.80
2018-04-30T13:30:56.243Z,29.80
2018-04-30T13:33:24.741Z,29.70
2018-04-30T13:36:00.982Z,29.60
2018-04-30T13:38:28.650Z,29.60
2018-04-30T13:43:51.060Z,29.40
2018-04-30T13:46:19.493Z,30.50
2018-04-30T13:48:47.164Z,30.50
2018-04-30T13:51:16.582Z,30.70
2018-04-30T13:53:44.260Z,30.70
2018-04-30T13:56:11.935Z,30.80
2018-04-30T13:58:39.630Z,31.30
2018-04-30T14:01:07.258Z,31.40
2018-04-30T14:03:35.699Z,30.90
2018-04-30T14:06:03.410Z,30.80
2018-04-30T14:08:31.042Z,30.50
2018-04-30T14:10:58.723Z,30.40
2018-04-30T14:13:26.372Z,30.50
2018-04-30T14:15:54.049Z,30.90
2018-04-30T14:18:21.696Z,30.70
2018-04-30T14:20:49.317Z,30.50
2018-04-30T14:23:17.778Z,30.60
2018-04-30T14:31:48.487Z,30.10
2018-04-30T14:34:16.247Z,30.20
2018-04-30T14:36:43.893Z,30.00
2018-04-30T14:39:12.336Z,29.60
2018-04-30T14:41:39.979Z,29.60
2018-04-30T14:44:07.633Z,29.30
2018-04-30T14:46:35.271Z,29.80
2018-04-30T14:49:02.982Z,29.70
2018-04-30T14:51:31.418Z,29.60
2018-04-30T14:53:59.060Z,29.60
2018-04-30T14:56:26.726Z,29.60
2018-04-30T14:58:54.382Z,29.70
2018-04-30T15:01:23.332Z,29.40
2018-04-30T15:03:50.974Z,29.00
2018-04-30T15:06:18.645Z,28.60
2018-04-30T15:08:46.734Z,28.20
2018-04-30T15:11:16.021Z,27.70
2018-04-30T15:13:43.718Z,27.70
2018-04-30T15:16:11.356Z,27.70
2018-04-30T15:18:39.137Z,27.50
2018-04-30T15:21:06.794Z,27.30
2018-04-30T15:23:34.473Z,27.30
2018-04-30T15:26:02.110Z,27.40
2018-04-30T15:28:29.740Z,27.30
2018-04-30T15:30:57.338Z,27.50
2018-04-30T15:33:25.290Z,27.50
2018-04-30T15:35:53.744Z,27.90
2018-04-30T15:38:21.430Z,27.90
2018-04-30T15:40:50.131Z,27.90
2018-04-30T15:43:18.011Z,27.80
2018-04-30T15:45:45.668Z,27.60
2018-04-30T15:48:14.091Z,27.70
2018-04-30T15:50:41.770Z,27.70
2018-04-30T15:53:10.166Z,28.00
2018-04-30T15:55:37.939Z,28.00
2018-04-30T15:58:05.634Z,27.90
2018-04-30T16:00:33.312Z,27.80
2018-04-30T16:03:01.026Z,27.90
2018-04-30T16:05:28.687Z,28.20
2018-04-30T16:07:56.381Z,28.30
2018-04-30T16:10:24.014Z,28.40
2018-04-30T16:12:51.698Z,28.50
2018-04-30T16:15:20.109Z,28.40
2018-04-30T16:17:47.764Z,28.40
2018-04-30T16:20:15.456Z,28.80
2018-04-30T16:22:43.078Z,28.70
2018-04-30T16:25:10.758Z,28.60
2018-04-30T16:27:39.137Z,28.80
2018-04-30T16:30:06.823Z,28.70
2018-04-30T16:32:34.810Z,29.00
2018-04-30T16:35:02.513Z,29.30
2018-04-30T16:37:30.149Z,29.50
2018-04-30T16:39:57.858Z,29.70
2018-04-30T16:42:25.555Z,29.80
2018-04-30T16:44:53.193Z,29.80
2018-04-30T16:47:21.674Z,30.10
2018-04-30T16:49:49.306Z,30.10
2018-04-30T16:52:17.030Z,30.40
2018-04-30T16:54:44.725Z,30.90
2018-04-30T16:57:12.366Z,31.20
2018-04-30T16:59:40.790Z,32.30
2018-04-30T17:02:08.436Z,32.30
2018-04-30T17:04:36.867Z,33.00
2018-04-30T17:07:04.502Z,32.90
2018-04-30T17:09:32.169Z,33.20
2018-04-30T17:11:59.810Z,33.60
2018-04-30T17:14:27.464Z,33.90
2018-04-30T17:17:15.694Z,34.10
2018-04-30T17:19:43.703Z,34.30
2018-04-30T17:22:11.513Z,35.30
2018-04-30T17:24:40.094Z,34.90
2018-04-30T17:27:07.753Z,34.90
2018-04-30T17:29:35.461Z,35.10
2018-04-30T17:32:03.134Z,35.10
2018-04-30T17:34:30.767Z,35.50
2018-04-30T17:37:00.473Z,35.70
2018-04-30T17:39:28.125Z,35.40
2018-04-30T17:41:56.564Z,36.20
2018-04-30T17:44:24.225Z,36.20
2018-04-30T17:46:52.010Z,36.30
2018-04-30T17:55:21.602Z,36.90
2018-04-30T17:57:49.326Z,37.10
2018-04-30T18:00:17.011Z,37.30
2018-04-30T18:08:31.991Z,38.00
2018-04-30T18:10:59.664Z,38.30
2018-04-30T18:13:27.371Z,38.50
2018-04-30T18:21:46.630Z,39.40
2018-04-30T18:24:14.273Z,39.30
2018-04-30T18:26:52.113Z,39.20
2018-04-30T18:29:19.829Z,39.30
2018-04-30T18:31:47.478Z,39.20
2018-04-30T18:34:15.129Z,39.30
2018-04-30T18:36:43.632Z,39.40
2018-04-30T18:39:12.418Z,39.50
2018-04-30T18:41:40.106Z,39.70
2018-04-30T18:44:09.172Z,39.70
2018-04-30T18:46:36.983Z,39.80
2018-04-30T18:49:04.794Z,39.90
2018-04-30T18:51:32.457Z,40.00
2018-04-30T18:54:00.155Z,40.20
2018-04-30T18:56:27.885Z,40.40
2018-04-30T18:58:55.544Z,40.50
2018-04-30T19:01:23.217Z,40.70
2018-04-30T19:03:50.882Z,40.80
2018-04-30T19:06:18.493Z,40.90
2018-04-30T19:08:46.177Z,41.20
2018-04-30T19:11:13.817Z,41.30
2018-04-30T19:13:42.277Z,41.70
2018-04-30T19:16:09.925Z,41.70
2018-04-30T19:18:37.602Z,41.80
2018-04-30T19:21:05.281Z,42.00
2018-04-30T19:23:32.919Z,42.20
2018-04-30T19:26:00.619Z,42.30
2018-04-30T19:28:28.241Z,42.50
2018-04-30T19:30:55.930Z,42.60
2018-04-30T19:33:24.372Z,42.60
2018-04-30T19:35:52.789Z,42.60
2018-04-30T19:38:21.225Z,42.70
2018-04-30T19:40:48.861Z,42.60
2018-04-30T19:43:16.509Z,42.80
2018-04-30T19:45:45.138Z,42.80
2018-04-30T19:48:12.778Z,42.80
2018-04-30T19:50:40.417Z,42.80
2018-04-30T19:53:08.093Z,42.80
2018-04-30T19:55:35.706Z,42.80
2018-04-30T19:58:04.188Z,42.60
2018-04-30T20:00:31.859Z,43.30
2018-04-30T20:02:59.518Z,42.80
2018-04-30T20:05:27.937Z,43.20
2018-04-30T20:07:55.610Z,43.10
2018-04-30T20:10:24.081Z,43.40
2018-04-30T20:12:51.708Z,43.30
2018-04-30T20:15:20.123Z,43.60
2018-04-30T20:17:47.758Z,43.50
2018-04-30T20:20:15.453Z,43.70
2018-04-30T20:22:43.085Z,43.80
2018-04-30T20:25:11.533Z,44.00
2018-04-30T20:27:39.201Z,43.90
2018-04-30T20:30:06.861Z,44.00
2018-04-30T20:32:46.640Z,44.80
2018-04-30T20:35:15.306Z,44.10
2018-04-30T20:37:42.976Z,44.10
2018-04-30T20:40:10.621Z,44.30
2018-04-30T20:42:39.069Z,44.30
2018-04-30T20:45:07.128Z,44.20
2018-04-30T20:47:35.082Z,44.30
2018-04-30T20:50:02.777Z,44.30
2018-04-30T20:52:30.423Z,44.40
2018-04-30T20:54:58.076Z,44.40
2018-04-30T20:57:25.710Z,44.60
2018-04-30T20:59:53.371Z,44.90
2018-04-30T21:02:21.798Z,45.30
2018-04-30T21:10:37.305Z,45.80
2018-04-30T21:13:04.966Z,45.80
2018-04-30T21:15:32.620Z,45.90
2018-04-30T21:18:00.273Z,46.10
2018-04-30T21:20:27.918Z,46.20
2018-04-30T21:26:12.513Z,46.50
2018-04-30T21:28:40.191Z,46.50
2018-04-30T21:31:07.821Z,46.60
2018-04-30T21:33:35.505Z,46.80
2018-04-30T21:36:03.503Z,46.90
2018-04-30T21:38:31.164Z,47.00
2018-04-30T21:40:58.859Z,47.10
2018-04-30T21:43:26.486Z,47.30
2018-04-30T21:45:54.925Z,47.60
2018-04-30T21:48:22.562Z,47.70
2018-04-30T21:50:50.215Z,47.80
2018-04-30T21:53:17.853Z,47.80
2018-04-30T21:55:46.272Z,48.20
2018-04-30T21:58:13.913Z,48.20
2018-04-30T22:00:41.593Z,48.40
2018-04-30T22:03:09.281Z,48.50
2018-04-30T22:05:36.973Z,48.70
2018-04-30T22:08:04.629Z,48.70
2018-04-30T22:10:32.353Z,48.80
2018-04-30T22:13:00.063Z,49.00
2018-04-30T22:15:27.706Z,49.10
2018-04-30T22:17:55.377Z,49.20
2018-04-30T22:20:23.005Z,49.30
2018-04-30T22:22:50.665Z,49.40
2018-04-30T22:25:18.331Z,49.50
2018-04-30T22:27:46.013Z,49.70
2018-04-30T22:30:13.673Z,49.90
2018-04-30T22:32:42.081Z,50.10
2018-04-30T22:35:10.514Z,50.30
2018-04-30T22:37:38.137Z,50.20
2018-04-30T22:40:05.802Z,50.30
2018-04-30T22:42:33.461Z,50.50
2018-04-30T22:45:01.116Z,50.50
2018-04-30T22:47:28.806Z,50.50
2018-04-30T22:49:56.430Z,50.50
2018-04-30T22:52:24.073Z,50.40
2018-04-30T22:54:51.722Z,50.70
2018-04-30T22:57:19.424Z,50.70
2018-04-30T22:59:47.820Z,51.00
2018-04-30T23:02:15.463Z,51.00
2018-04-30T23:04:43.880Z,51.30
2018-04-30T23:07:11.505Z,51.30
2018-04-30T23:09:39.227Z,51.40
2018-04-30T23:12:06.919Z,51.40
2018-04-30T23:14:35.317Z,51.50
2018-04-30T23:17:03.774Z,51.60
2018-04-30T23:19:31.409Z,51.50
2018-04-30T23:21:59.071Z,51.50
2018-04-30T23:24:26.705Z,51.70
2018-04-30T23:26:55.102Z,52.00
2018-04-30T23:29:22.753Z,52.00
2018-04-30T23:31:50.395Z,52.00
2018-04-30T23:34:18.817Z,52.10
2018-04-30T23:36:46.489Z,52.10
2018-04-30T23:39:14.135Z,52.20
2018-04-30T23:41:41.785Z,52.20
2018-04-30T23:44:09.497Z,52.30
2018-04-30T23:46:37.146Z,52.30
2018-04-30T23:49:04.819Z,52.40
2018-04-30T23:51:32.611Z,52.60
2018-04-30T23:54:00.247Z,52.70
2018-04-30T23:56:28.093Z,52.80
2018-04-30T23:58:55.721Z,52.90
